Time;durP1;ratioP1;P1;durP2;ratioP2;P2;SDS_P1;SDS_P2;PMS_P1;PMS_P2;Temp;Humidity;BMP_temperature;BMP_pressure;BME280_temperature;BME280_humidity;BME280_pressure;Samples;Min_cycle;Max_cycle;Signal;HPM_P1;HPM_P2
2024/02/15 00:00:58;;;;;;;16.02;7.25;;;11.30;99.90;;;;;;4946878;28;20038;-62
2024/02/15 00:03:23;;;;;;;16.95;7.60;;;11.30;99.90;;;;;;4949655;28;20423;-62
2024/02/15 00:05:52;;;;;;;14.73;7.80;;;11.30;99.90;;;;;;4949969;29;20028;-62
2024/02/15 00:08:19;;;;;;;18.35;8.70;;;11.30;99.90;;;;;;4949118;29;20027;-62
2024/02/15 00:10:48;;;;;;;19.88;7.82;;;11.20;99.90;;;;;;4949196;29;20023;-62
2024/02/15 00:13:16;;;;;;;19.70;9.00;;;11.30;99.90;;;;;;4947824;29;20027;-62
2024/02/15 00:15:42;;;;;;;18.50;8.10;;;11.30;99.90;;;;;;4949298;29;20020;-62
2024/02/15 00:18:11;;;;;;;16.42;8.40;;;11.30;99.90;;;;;;4950244;28;20019;-62
2024/02/15 00:20:37;;;;;;;18.70;8.80;;;11.30;99.90;;;;;;4949040;29;20051;-62
2024/02/15 00:23:08;;;;;;;19.85;8.63;;;11.20;99.90;;;;;;4948899;29;20090;-62
2024/02/15 00:25:34;;;;;;;14.52;7.07;;;11.30;99.90;;;;;;4949979;28;20023;-63
2024/02/15 00:28:01;;;;;;;17.02;7.97;;;11.30;99.90;;;;;;4949720;29;20042;-63
2024/02/15 00:30:27;;;;;;;15.02;8.02;;;11.30;99.90;;;;;;4951538;28;20034;-63
2024/02/15 00:32:56;;;;;;;16.13;7.93;;;11.30;99.90;;;;;;4950332;29;20473;-63
2024/02/15 00:35:27;;;;;;;16.65;8.60;;;11.20;99.90;;;;;;4948014;28;20139;-64
2024/02/15 00:37:53;;;;;;;17.90;8.52;;;11.30;99.90;;;;;;4954001;29;20022;-61
2024/02/15 00:40:21;;;;;;;17.80;8.30;;;11.20;99.90;;;;;;4951279;29;20027;-61
2024/02/15 00:42:47;;;;;;;20.77;8.55;;;11.20;99.90;;;;;;4951920;29;20035;-61
2024/02/15 00:45:12;;;;;;;15.90;7.65;;;11.20;99.90;;;;;;4952819;29;20034;-61
2024/02/15 00:47:38;;;;;;;16.63;7.97;;;11.30;99.90;;;;;;4952677;29;20326;-62
2024/02/15 00:50:04;;;;;;;14.52;7.25;;;11.30;99.90;;;;;;4934376;29;20487;-63
2024/02/15 00:52:30;;;;;;;11.93;5.65;;;11.30;99.90;;;;;;4950535;29;20089;-63
2024/02/15 00:54:56;;;;;;;11.63;5.75;;;11.30;99.90;;;;;;4951662;29;20024;-63
2024/02/15 00:57:22;;;;;;;11.10;5.55;;;11.30;99.90;;;;;;4951724;29;20070;-64
2024/02/15 00:59:48;;;;;;;14.38;6.63;;;11.30;99.90;;;;;;4952024;29;20047;-62
2024/02/15 01:02:14;;;;;;;14.57;6.53;;;11.30;99.90;;;;;;4949884;29;20028;-62
2024/02/15 01:04:43;;;;;;;13.10;6.63;;;11.30;99.90;;;;;;4951099;29;20031;-62
2024/02/15 01:07:11;;;;;;;15.95;6.65;;;11.30;99.90;;;;;;4951351;29;20034;-63
2024/02/15 01:09:40;;;;;;;16.67;7.05;;;11.30;99.90;;;;;;4949279;28;20035;-63
2024/02/15 01:12:05;;;;;;;14.18;6.47;;;11.30;99.90;;;;;;4950684;29;20106;-63
2024/02/15 01:14:31;;;;;;;15.25;7.15;;;11.30;99.90;;;;;;4951419;29;20123;-63
2024/02/15 01:17:00;;;;;;;13.95;6.90;;;11.30;99.90;;;;;;4950031;29;20105;-63
2024/02/15 01:19:28;;;;;;;13.70;6.68;;;11.30;99.90;;;;;;4947377;28;20051;-63
2024/02/15 01:21:54;;;;;;;15.02;6.88;;;11.20;99.90;;;;;;4950611;29;20028;-63
2024/02/15 01:24:24;;;;;;;14.18;6.53;;;11.30;99.90;;;;;;4952309;29;20470;-63
2024/02/15 01:26:53;;;;;;;15.90;6.60;;;11.30;99.90;;;;;;4949733;29;20067;-63
2024/02/15 01:29:18;;;;;;;20.38;7.07;;;11.30;99.90;;;;;;4950506;29;20078;-63
2024/02/15 01:31:44;;;;;;;18.67;7.40;;;11.30;99.90;;;;;;4948635;29;20031;-63
2024/02/15 01:34:10;;;;;;;18.02;7.20;;;11.30;99.90;;;;;;4952122;29;20058;-63
2024/02/15 01:36:36;;;;;;;16.45;8.02;;;11.30;99.90;;;;;;4949407;29;20026;-63
2024/02/15 01:39:04;;;;;;;16.98;8.25;;;11.30;99.90;;;;;;4951861;29;20051;-63
2024/02/15 01:41:32;;;;;;;17.13;6.93;;;11.30;99.90;;;;;;4947373;29;20063;-63
2024/02/15 01:43:58;;;;;;;18.17;8.23;;;11.30;99.90;;;;;;4949094;29;20036;-63
2024/02/15 01:46:27;;;;;;;16.58;7.50;;;11.20;99.90;;;;;;4950496;28;20038;-63
2024/02/15 01:48:56;;;;;;;18.67;6.97;;;11.30;99.90;;;;;;4933260;28;20035;-63
2024/02/15 01:51:24;;;;;;;23.63;9.55;;;11.30;99.90;;;;;;4949137;29;20763;-63
2024/02/15 01:53:49;;;;;;;16.17;7.70;;;11.40;99.90;;;;;;4951133;29;20035;-63
2024/02/15 01:56:17;;;;;;;18.98;8.43;;;11.40;99.90;;;;;;4951528;29;20015;-63
2024/02/15 01:58:45;;;;;;;21.50;8.43;;;11.30;99.90;;;;;;4949689;28;20007;-63
2024/02/15 02:01:11;;;;;;;17.77;7.25;;;11.30;99.90;;;;;;4950488;29;20034;-63
2024/02/15 02:03:42;;;;;;;18.88;7.93;;;11.40;99.90;;;;;;4950454;29;20023;-63
2024/02/15 02:06:08;;;;;;;;;;;11.40;99.90;;;;;;4951568;29;20027;-63
2024/02/15 02:08:39;;;;;;;15.77;7.43;;;11.40;99.90;;;;;;4950611;29;19931;-63
2024/02/15 02:11:05;;;;;;;19.65;8.32;;;11.40;99.90;;;;;;4950557;29;20110;-63
2024/02/15 02:13:35;;;;;;;20.02;8.75;;;11.40;99.90;;;;;;4949060;29;20221;-63
2024/02/15 02:16:04;;;;;;;18.65;8.38;;;11.40;99.90;;;;;;4949942;29;20023;-63
2024/02/15 02:18:30;;;;;;;26.88;8.80;;;11.40;99.90;;;;;;4948455;28;20035;-63
2024/02/15 02:20:58;;;;;;;20.33;8.70;;;11.40;99.90;;;;;;4950961;29;20027;-63
2024/02/15 02:23:31;;;;;;;20.15;8.35;;;11.40;99.90;;;;;;4948134;29;20846;-62
2024/02/15 02:25:59;;;;;;;20.08;8.63;;;11.30;99.90;;;;;;4951689;28;20027;-63
2024/02/15 02:28:28;;;;;;;20.65;8.43;;;11.40;99.90;;;;;;4950840;28;20027;-63
2024/02/15 02:30:53;;;;;;;17.95;9.73;;;11.30;99.90;;;;;;4951802;28;20031;-63
2024/02/15 02:33:22;;;;;;;24.58;9.73;;;11.30;99.90;;;;;;4949889;28;20066;-62
2024/02/15 02:35:53;;;;;;;20.33;9.90;;;11.30;99.90;;;;;;4950938;29;20015;-62
2024/02/15 02:38:19;;;;;;;24.45;10.13;;;11.40;99.90;;;;;;4948802;29;20035;-63
2024/02/15 02:40:50;;;;;;;21.98;10.38;;;11.30;99.90;;;;;;4950287;29;20037;-63
2024/02/15 02:43:23;;;;;;;21.95;10.20;;;11.30;99.90;;;;;;4949307;29;20362;-62
2024/02/15 02:45:49;;;;;;;27.25;10.73;;;11.30;99.90;;;;;;4950488;29;20032;-62
2024/02/15 02:48:15;;;;;;;27.35;9.98;;;11.30;99.90;;;;;;4949166;29;20651;-63
2024/02/15 02:50:43;;;;;;;25.77;11.88;;;11.30;99.90;;;;;;4947848;29;20379;-63
2024/02/15 02:53:13;;;;;;;23.55;11.02;;;11.20;99.90;;;;;;4947326;29;20106;-62
2024/02/15 02:55:40;;;;;;;22.42;10.27;;;11.20;99.90;;;;;;4950263;29;20458;-63
2024/02/15 02:58:09;;;;;;;29.63;12.27;;;11.30;99.90;;;;;;4949452;28;20047;-63
2024/02/15 03:00:34;;;;;;;26.95;10.63;;;11.20;99.90;;;;;;4949764;29;20114;-63
2024/02/15 03:03:06;;;;;;;21.85;11.23;;;11.20;99.90;;;;;;4949483;29;20488;-63
2024/02/15 03:05:31;;;;;;;22.25;11.13;;;11.30;99.90;;;;;;4948295;29;20098;-63
2024/02/15 03:07:57;;;;;;;25.10;10.73;;;11.30;99.90;;;;;;4948896;29;20158;-63
2024/02/15 03:10:24;;;;;;;24.58;10.65;;;11.30;99.90;;;;;;4947459;29;20530;-63
2024/02/15 03:12:52;;;;;;;19.55;9.25;;;11.30;99.90;;;;;;4949219;29;20023;-63
2024/02/15 03:15:18;;;;;;;20.67;9.98;;;11.30;99.90;;;;;;4949685;29;20030;-63
2024/02/15 03:17:46;;;;;;;22.45;10.52;;;11.30;99.90;;;;;;4948367;29;20114;-62
2024/02/15 03:20:20;;;;;;;25.27;9.63;;;11.30;99.90;;;;;;4947234;28;20047;-63
2024/02/15 03:23:04;;;;;;;23.75;9.85;;;11.30;99.90;;;;;;4945828;29;20391;-63
2024/02/15 03:25:30;;;;;;;23.85;9.30;;;11.30;99.90;;;;;;4948408;29;20181;-63
2024/02/15 03:28:08;;;;;;;24.02;10.05;;;11.30;99.90;;;;;;4932009;29;20538;-63
2024/02/15 03:30:34;;;;;;;26.90;9.90;;;11.40;99.90;;;;;;4949193;29;20244;-62
2024/02/15 03:33:04;;;;;;;23.15;10.52;;;11.30;99.90;;;;;;4949324;29;20028;-62
2024/02/15 03:35:31;;;;;;;24.38;9.95;;;11.30;99.90;;;;;;4947683;29;20031;-63
2024/02/15 03:38:00;;;;;;;27.15;11.13;;;11.40;99.90;;;;;;4949191;29;20024;-63
2024/02/15 03:40:26;;;;;;;24.52;11.18;;;11.30;99.90;;;;;;4947778;28;20016;-63
2024/02/15 03:42:53;;;;;;;27.42;11.15;;;11.30;99.90;;;;;;4948930;29;20031;-62
2024/02/15 03:45:19;;;;;;;26.95;11.60;;;11.20;99.90;;;;;;4949522;29;20031;-63
2024/02/15 03:47:46;;;;;;;30.63;11.32;;;11.20;99.90;;;;;;4948721;29;20053;-62
2024/02/15 03:50:14;;;;;;;26.20;11.30;;;11.10;99.90;;;;;;4949168;29;20110;-63
2024/02/15 03:52:40;;;;;;;28.75;10.93;;;11.10;99.90;;;;;;4947034;29;20054;-62
2024/02/15 03:55:09;;;;;;;29.42;10.18;;;11.00;99.90;;;;;;4948738;29;20055;-62
2024/02/15 03:57:40;;;;;;;25.05;10.88;;;11.00;99.90;;;;;;4949596;28;20019;-63
2024/02/15 04:00:10;;;;;;;26.20;10.75;;;11.10;99.90;;;;;;4948663;29;20050;-62
2024/02/15 04:02:36;;;;;;;;;;;11.10;99.90;;;;;;4949745;29;20015;-63
2024/02/15 04:05:04;;;;;;;24.88;10.48;;;11.10;99.90;;;;;;4948634;29;20377;-63
2024/02/15 04:07:30;;;;;;;22.63;10.00;;;11.10;99.90;;;;;;4949023;29;20086;-63
2024/02/15 04:09:56;;;;;;;23.00;9.80;;;11.10;99.90;;;;;;4948448;28;20027;-63
2024/02/15 04:12:26;;;;;;;24.92;9.85;;;11.10;99.90;;;;;;4948827;29;20110;-63
2024/02/15 04:14:52;;;;;;;;;;;11.10;99.90;;;;;;4930505;29;20031;-62
2024/02/15 04:17:21;;;;;;;23.92;9.00;;;11.10;99.90;;;;;;4949294;29;20317;-62
2024/02/15 04:19:47;;;;;;;24.55;8.75;;;11.20;99.90;;;;;;4949917;28;20050;-63
2024/02/15 04:22:19;;;;;;;18.83;9.73;;;11.20;99.90;;;;;;4947510;29;20031;-62
2024/02/15 04:24:47;;;;;;;21.05;8.23;;;11.30;99.90;;;;;;4947611;29;20483;-62
2024/02/15 04:27:20;;;;;;;22.23;8.27;;;11.20;99.90;;;;;;4949059;29;20055;-64
2024/02/15 04:29:46;;;;;;;19.40;8.30;;;11.30;99.90;;;;;;4930370;29;20042;-62
2024/02/15 04:32:13;;;;;;;20.13;8.35;;;11.20;99.90;;;;;;4952552;28;20031;-63
2024/02/15 04:34:46;;;;;;;15.88;7.50;;;11.30;99.90;;;;;;4950176;28;20070;-63
2024/02/15 04:37:16;;;;;;;24.00;8.68;;;11.20;99.90;;;;;;4939558;29;20516;-62
2024/02/15 04:39:46;;;;;;;18.25;6.85;;;11.30;99.90;;;;;;4948356;29;20025;-62
2024/02/15 04:42:11;;;;;;;16.47;7.27;;;11.30;99.90;;;;;;4948152;29;20020;-62
2024/02/15 04:44:43;;;;;;;12.23;5.90;;;11.40;99.90;;;;;;4930502;29;20278;-62
2024/02/15 04:47:12;;;;;;;17.05;6.45;;;11.40;99.90;;;;;;4951943;28;20042;-62
2024/02/15 04:49:38;;;;;;;16.00;5.85;;;11.40;99.90;;;;;;4949307;28;20115;-62
2024/02/15 04:52:07;;;;;;;13.90;5.45;;;11.40;99.90;;;;;;4946232;28;20098;-62
2024/02/15 04:54:33;;;;;;;12.30;5.65;;;11.40;99.90;;;;;;4932518;29;20024;-63
2024/02/15 04:56:58;;;;;;;13.40;6.10;;;11.40;99.90;;;;;;4947455;29;20074;-62
2024/02/15 04:59:28;;;;;;;13.05;4.85;;;11.50;99.90;;;;;;4947629;29;20523;-62
2024/02/15 05:01:58;;;;;;;13.13;5.28;;;11.50;99.90;;;;;;4946932;29;20035;-62
2024/02/15 05:04:24;;;;;;;11.50;4.97;;;11.40;99.90;;;;;;4947602;29;20038;-62
2024/02/15 05:06:53;;;;;;;11.65;4.55;;;11.50;99.90;;;;;;4948104;29;20118;-62
2024/02/15 05:09:18;;;;;;;11.90;4.50;;;11.50;99.90;;;;;;4947444;29;20027;-63
2024/02/15 05:11:47;;;;;;;11.48;3.90;;;11.50;99.90;;;;;;4947461;29;20130;-62
2024/02/15 05:14:27;;;;;;;13.07;4.07;;;11.50;99.90;;;;;;4947533;29;20023;-62
2024/02/15 05:16:55;;;;;;;12.50;4.57;;;11.50;99.90;;;;;;4948219;29;20023;-62
2024/02/15 05:19:27;;;;;;;10.57;4.30;;;11.50;99.90;;;;;;4947111;28;20402;-63
2024/02/15 05:21:55;;;;;;;8.75;3.47;;;11.50;99.90;;;;;;4931341;29;20031;-63
2024/02/15 05:24:21;;;;;;;11.60;3.65;;;11.50;99.90;;;;;;4934484;29;20046;-63
2024/02/15 05:26:47;;;;;;;12.35;3.63;;;11.40;99.90;;;;;;4951309;29;20027;-62
2024/02/15 05:29:13;;;;;;;11.68;3.00;;;11.50;99.90;;;;;;4951111;29;20027;-63
2024/02/15 05:31:44;;;;;;;9.98;2.78;;;11.50;99.90;;;;;;4944832;28;20042;-62
2024/02/15 05:34:13;;;;;;;8.98;2.85;;;11.60;99.90;;;;;;4955607;28;20049;-62
2024/02/15 05:36:39;;;;;;;11.88;3.03;;;11.60;99.90;;;;;;4952693;28;20502;-62
2024/02/15 05:39:11;;;;;;;7.88;2.72;;;11.60;99.90;;;;;;4934881;28;20023;-62
2024/02/15 05:41:37;;;;;;;10.27;2.70;;;11.60;99.90;;;;;;4952637;28;20030;-62
2024/02/15 05:44:07;;;;;;;6.90;2.40;;;11.60;99.90;;;;;;4952371;28;20036;-62
2024/02/15 05:46:37;;;;;;;7.78;2.63;;;11.60;99.90;;;;;;4952907;28;20110;-62
2024/02/15 05:49:04;;;;;;;8.60;2.67;;;11.60;99.90;;;;;;4955014;28;20093;-62
2024/02/15 05:51:33;;;;;;;7.05;2.25;;;11.60;99.90;;;;;;4950599;28;20035;-63
2024/02/15 05:53:59;;;;;;;11.18;2.28;;;11.60;99.90;;;;;;4950406;28;20033;-62
2024/02/15 05:56:29;;;;;;;7.22;2.40;;;11.60;99.90;;;;;;4938655;29;20039;-62
2024/02/15 05:58:54;;;;;;;8.35;2.38;;;11.60;99.90;;;;;;4953169;28;20058;-62
2024/02/15 06:01:23;;;;;;;8.45;2.42;;;11.70;99.90;;;;;;4952762;28;20051;-63
2024/02/15 06:03:49;;;;;;;9.45;2.75;;;11.70;99.90;;;;;;4952030;28;20505;-63
2024/02/15 06:06:16;;;;;;;12.27;4.18;;;11.70;99.90;;;;;;4940170;29;20043;-63
2024/02/15 06:08:41;;;;;;;10.82;3.42;;;11.60;99.90;;;;;;4926977;29;20908;-62
2024/02/15 06:11:09;;;;;;;9.60;3.60;;;11.60;99.90;;;;;;4949398;28;20062;-62
2024/02/15 06:13:34;;;;;;;10.90;3.67;;;11.60;99.90;;;;;;4954131;28;20089;-63
2024/02/15 06:16:08;;;;;;;9.77;2.83;;;11.60;99.90;;;;;;4951641;28;20023;-62
2024/02/15 06:18:34;;;;;;;10.70;3.05;;;11.60;99.90;;;;;;4952505;28;20031;-62
2024/02/15 06:21:00;;;;;;;10.40;3.65;;;11.50;99.90;;;;;;4942625;28;20043;-63
2024/02/15 06:23:27;;;;;;;10.73;2.58;;;11.50;99.90;;;;;;4951652;28;20051;-62
2024/02/15 06:25:56;;;;;;;7.00;2.60;;;11.60;99.90;;;;;;4933222;29;20030;-63
2024/02/15 06:39:46;;;;;;;8.38;2.55;;;11.50;99.90;;;;;;4944891;28;20034;-62
2024/02/15 06:42:17;;;;;;;7.93;2.58;;;11.50;99.90;;;;;;4951908;28;20031;-62
2024/02/15 06:44:44;;;;;;;6.53;2.42;;;11.50;99.90;;;;;;4947749;28;20519;-62
2024/02/15 06:47:10;;;;;;;9.38;2.78;;;11.40;99.90;;;;;;4951175;28;20024;-63
2024/02/15 06:49:40;;;;;;;8.57;2.72;;;11.40;99.90;;;;;;4951070;28;20045;-62
2024/02/15 06:52:09;;;;;;;8.40;2.57;;;11.40;99.90;;;;;;4950310;28;20038;-62
2024/02/15 06:54:39;;;;;;;9.48;2.80;;;11.40;99.90;;;;;;4932309;29;20389;-62
2024/02/15 06:57:04;;;;;;;;;;;11.40;99.90;;;;;;4948877;29;20054;-62
2024/02/15 06:59:34;;;;;;;8.38;2.65;;;11.30;99.90;;;;;;4947632;28;20012;-62
2024/02/15 07:02:00;;;;;;;8.75;2.97;;;11.30;99.90;;;;;;4946631;29;20031;-62
2024/02/15 07:04:27;;;;;;;11.23;2.85;;;11.40;99.90;;;;;;4947156;29;20023;-62
2024/02/15 07:06:54;;;;;;;8.63;2.80;;;11.30;99.90;;;;;;4926562;29;20027;-62
2024/02/15 07:09:22;;;;;;;10.65;3.10;;;11.30;99.90;;;;;;4945664;29;20035;-63
2024/02/15 07:11:48;;;;;;;10.48;3.08;;;11.30;99.90;;;;;;4941477;29;20027;-62
2024/02/15 07:14:15;;;;;;;10.70;3.15;;;11.30;99.90;;;;;;4945165;29;20140;-63
2024/02/15 07:16:44;;;;;;;8.45;2.72;;;11.30;99.90;;;;;;4948316;28;20178;-63
2024/02/15 07:19:10;;;;;;;10.70;3.10;;;11.20;99.90;;;;;;4947780;28;20059;-63
2024/02/15 07:21:36;;;;;;;13.05;3.50;;;11.30;99.90;;;;;;4944911;29;20050;-63
2024/02/15 07:24:01;;;;;;;11.20;3.20;;;11.20;99.90;;;;;;4926544;29;20405;-63
2024/02/15 07:26:27;;;;;;;9.10;3.25;;;11.30;99.90;;;;;;4929583;29;20169;-63
2024/02/15 07:28:55;;;;;;;9.52;3.60;;;11.30;99.90;;;;;;4948872;29;20247;-63
2024/02/15 07:31:21;;;;;;;10.88;4.38;;;11.30;99.90;;;;;;4938939;29;20039;-63
2024/02/15 07:33:51;;;;;;;11.65;4.32;;;11.30;99.90;;;;;;4946702;29;20410;-63
2024/02/15 07:36:23;;;;;;;14.25;4.00;;;11.20;99.90;;;;;;4943789;28;20024;-63
2024/02/15 07:38:53;;;;;;;13.77;4.35;;;11.20;99.90;;;;;;4949958;28;20037;-63
2024/02/15 07:41:22;;;;;;;10.00;4.10;;;11.20;99.90;;;;;;4929508;29;20192;-63
2024/02/15 07:43:55;;;;;;;11.32;3.85;;;11.20;99.90;;;;;;4947285;28;20038;-63
2024/02/15 07:46:24;;;;;;;9.90;3.90;;;11.20;99.90;;;;;;4949508;29;20067;-63
2024/02/15 07:48:50;;;;;;;14.00;3.90;;;11.20;99.90;;;;;;4948744;29;20110;-70
2024/02/15 07:51:18;;;;;;;15.10;4.18;;;11.20;99.90;;;;;;4945205;29;20036;-63
2024/02/15 07:53:44;;;;;;;13.38;4.32;;;11.20;99.90;;;;;;4948098;29;20130;-63
2024/02/15 07:56:10;;;;;;;11.30;4.13;;;11.20;99.90;;;;;;4947467;29;20364;-63
2024/02/15 07:58:51;;;;;;;14.30;5.10;;;11.20;99.90;;;;;;4947891;29;20121;-63
2024/02/15 08:01:19;;;;;;;9.73;3.85;;;11.30;99.90;;;;;;4945895;29;20472;-63
2024/02/15 08:03:45;;;;;;;13.52;3.55;;;11.20;99.90;;;;;;4947890;29;20027;-63
2024/02/15 08:06:15;;;;;;;11.82;3.80;;;11.30;99.90;;;;;;4947416;29;20414;-63
2024/02/15 08:08:47;;;;;;;;;;;11.30;99.90;;;;;;4929331;29;20139;-63
2024/02/15 08:11:18;;;;;;;12.65;3.60;;;11.20;99.90;;;;;;4931961;29;19914;-63
2024/02/15 08:13:50;;;;;;;11.48;4.10;;;11.20;99.90;;;;;;4929410;29;20436;-63
2024/02/15 08:16:33;;;;;;;10.52;3.17;;;11.30;99.90;;;;;;4947457;29;20024;-63
2024/02/15 08:19:00;;;;;;;10.52;3.38;;;11.20;99.90;;;;;;4947116;29;20047;-63
2024/02/15 08:21:37;;;;;;;11.30;3.45;;;11.30;99.90;;;;;;4944857;29;20110;-62
2024/02/15 08:24:06;;;;;;;6.90;2.38;;;11.30;99.90;;;;;;4944668;29;20035;-63
2024/02/15 08:26:33;;;;;;;9.63;3.53;;;11.30;99.90;;;;;;4931135;29;20434;-63
2024/02/15 08:28:58;;;;;;;11.65;3.13;;;11.30;99.90;;;;;;4944514;29;20467;-63
2024/02/15 08:31:24;;;;;;;13.85;3.42;;;11.20;99.90;;;;;;4947130;29;20741;-63
2024/02/15 08:33:50;;;;;;;10.60;2.83;;;11.40;99.90;;;;;;4948253;29;20510;-63
2024/02/15 08:36:15;;;;;;;12.05;3.05;;;11.30;99.90;;;;;;4947213;29;20027;-62
2024/02/15 08:38:41;;;;;;;8.20;2.90;;;11.40;99.90;;;;;;4948304;29;20027;-62
2024/02/15 08:41:08;;;;;;;9.18;3.30;;;11.50;99.90;;;;;;4947515;29;20579;-62
2024/02/15 08:43:34;;;;;;;10.95;3.00;;;11.50;99.90;;;;;;4948106;29;20039;-62
2024/02/15 08:46:01;;;;;;;10.20;3.10;;;11.60;99.90;;;;;;4931824;29;20119;-62
2024/02/15 08:48:26;;;;;;;10.32;3.03;;;11.70;99.90;;;;;;4929052;29;20029;-62
2024/02/15 08:50:52;;;;;;;8.15;2.90;;;11.70;99.90;;;;;;4946149;29;20110;-63
2024/02/15 08:53:21;;;;;;;9.68;3.45;;;11.80;99.90;;;;;;4946853;29;20023;-62
2024/02/15 08:55:47;;;;;;;8.35;2.97;;;11.80;99.90;;;;;;4950415;28;20070;-62
2024/02/15 08:58:13;;;;;;;9.32;3.10;;;11.80;99.90;;;;;;4952245;29;20028;-62
2024/02/15 09:00:44;;;;;;;10.88;3.50;;;11.80;99.90;;;;;;4950164;29;20027;-63
2024/02/15 09:03:10;;;;;;;12.63;3.63;;;11.80;99.90;;;;;;4952139;29;20027;-63
2024/02/15 09:05:35;;;;;;;9.05;2.40;;;11.90;99.90;;;;;;4950476;29;20027;-63
2024/02/15 09:08:02;;;;;;;10.38;2.25;;;11.80;99.90;;;;;;4951725;29;20105;-63
2024/02/15 09:10:30;;;;;;;9.05;2.97;;;11.80;99.90;;;;;;4951704;29;20027;-63
2024/02/15 09:12:56;;;;;;;8.45;2.35;;;11.90;99.90;;;;;;4947862;29;20047;-63
2024/02/15 09:15:22;;;;;;;9.60;2.40;;;11.90;99.90;;;;;;4952317;29;20244;-63
2024/02/15 09:17:48;;;;;;;7.85;2.25;;;11.90;99.90;;;;;;4934368;29;20626;-62
2024/02/15 09:20:17;;;;;;;9.73;2.45;;;11.90;99.90;;;;;;4950765;28;20476;-62
2024/02/15 09:22:51;;;;;;;10.57;2.65;;;11.90;99.90;;;;;;4949696;29;20019;-62
2024/02/15 09:25:23;;;;;;;7.40;2.15;;;11.90;99.90;;;;;;4925251;29;20075;-62
2024/02/15 09:27:49;;;;;;;9.07;2.63;;;11.80;99.90;;;;;;4951762;29;20039;-62
2024/02/15 09:30:16;;;;;;;10.88;2.20;;;11.90;99.90;;;;;;4950632;29;20038;-62
2024/02/15 09:32:42;;;;;;;5.47;1.90;;;11.90;99.90;;;;;;4951007;29;20338;-62
2024/02/15 09:35:11;;;;;;;7.65;2.25;;;11.90;99.90;;;;;;4950441;29;20395;-62
2024/02/15 09:37:42;;;;;;;8.35;2.40;;;11.90;99.90;;;;;;4951350;29;20020;-62
2024/02/15 09:40:10;;;;;;;9.30;2.22;;;11.80;99.90;;;;;;4950603;29;20015;-62
2024/02/15 09:42:36;;;;;;;5.97;2.05;;;11.80;99.90;;;;;;4950393;29;20039;-62
2024/02/15 09:45:02;;;;;;;7.85;2.70;;;11.90;99.90;;;;;;4950097;29;20027;-62
2024/02/15 09:47:40;;;;;;;7.60;2.10;;;11.90;99.90;;;;;;4951256;29;20721;-62
2024/02/15 09:50:11;;;;;;;6.95;2.50;;;11.90;99.90;;;;;;4950513;29;20282;-62
2024/02/15 09:52:40;;;;;;;11.35;2.75;;;12.00;99.90;;;;;;4949401;29;20031;-62
2024/02/15 09:55:12;;;;;;;8.23;2.10;;;12.10;99.90;;;;;;4933433;29;20102;-62
2024/02/15 09:57:39;;;;;;;11.18;2.53;;;12.10;99.90;;;;;;4951191;29;20412;-62
2024/02/15 10:00:07;;;;;;;6.20;1.83;;;12.20;99.90;;;;;;4950405;29;20101;-62
2024/02/15 10:02:35;;;;;;;8.70;2.47;;;12.10;99.90;;;;;;4950869;29;20057;-62
2024/02/15 10:05:02;;;;;;;8.25;2.40;;;12.20;99.90;;;;;;4949990;29;20142;-62
2024/02/15 10:07:28;;;;;;;8.35;2.70;;;12.20;99.90;;;;;;4950208;28;20070;-62
2024/02/15 10:09:54;;;;;;;10.13;2.65;;;12.30;99.90;;;;;;4951301;29;20148;-62
2024/02/15 10:12:23;;;;;;;8.43;2.28;;;12.40;99.90;;;;;;4933587;29;20038;-62
2024/02/15 10:14:49;;;;;;;9.85;2.40;;;12.50;99.90;;;;;;4950309;29;20027;-62
2024/02/15 10:17:17;;;;;;;8.02;2.70;;;12.60;99.90;;;;;;4951128;29;20505;-62
2024/02/15 10:19:44;;;;;;;7.05;2.30;;;12.70;99.90;;;;;;4949950;28;20158;-62
2024/02/15 10:22:11;;;;;;;7.95;2.22;;;12.80;99.90;;;;;;4948978;29;20027;-62
2024/02/15 10:24:39;;;;;;;7.85;2.03;;;12.80;99.90;;;;;;4949916;29;20114;-62
2024/02/15 10:27:06;;;;;;;8.35;2.10;;;13.00;99.90;;;;;;4950460;29;20031;-62
2024/02/15 10:29:36;;;;;;;5.85;1.85;;;13.00;99.90;;;;;;4949782;29;20023;-63
2024/02/15 10:32:03;;;;;;;7.57;2.03;;;13.10;99.90;;;;;;4950662;29;20023;-62
2024/02/15 10:34:30;;;;;;;10.90;2.33;;;13.20;99.90;;;;;;4949310;29;20325;-62
2024/02/15 10:37:17;;;;;;;8.02;2.42;;;13.20;99.90;;;;;;4950318;29;20136;-62
2024/02/15 10:39:42;;;;;;;6.97;1.83;;;13.20;99.90;;;;;;4949258;29;20019;-62
2024/02/15 10:42:11;;;;;;;10.60;2.25;;;13.10;99.90;;;;;;4950014;29;20023;-62
2024/02/15 10:44:40;;;;;;;9.23;2.05;;;13.00;99.90;;;;;;4949519;29;20028;-62
2024/02/15 10:47:07;;;;;;;10.85;2.20;;;12.90;99.90;;;;;;4950215;29;20055;-62
2024/02/15 10:49:36;;;;;;;7.88;1.90;;;12.90;99.90;;;;;;4948828;29;20115;-62
2024/02/15 10:52:05;;;;;;;7.00;2.10;;;13.00;99.90;;;;;;4940650;29;20038;-62
2024/02/15 10:54:41;;;;;;;7.03;1.98;;;13.00;99.90;;;;;;4949377;29;20023;-62
2024/02/15 10:57:09;;;;;;;5.68;1.83;;;13.10;99.90;;;;;;4950063;29;20036;-62
2024/02/15 10:59:37;;;;;;;9.95;2.45;;;13.10;99.90;;;;;;4948977;29;20015;-62
2024/02/15 11:02:23;;;;;;;9.43;1.98;;;13.20;99.90;;;;;;4949940;29;20026;-62
2024/02/15 11:04:56;;;;;;;7.65;1.90;;;13.30;99.90;;;;;;4947233;29;20028;-62
2024/02/15 11:07:28;;;;;;;6.18;1.80;;;13.40;99.90;;;;;;4950394;29;20088;-63
2024/02/15 11:09:58;;;;;;;6.65;1.75;;;13.50;99.90;;;;;;4949553;29;20094;-63
2024/02/15 11:12:28;;;;;;;6.50;1.80;;;13.60;99.90;;;;;;4949495;29;20024;-62
2024/02/15 11:14:54;;;;;;;5.88;2.03;;;13.70;99.90;;;;;;4949339;29;20366;-62
2024/02/15 11:17:44;;;;;;;5.75;1.70;;;13.70;99.90;;;;;;4949659;29;20408;-62
2024/02/15 11:20:30;;;;;;;6.47;1.83;;;13.80;99.90;;;;;;4948396;28;20051;-63
2024/02/15 11:22:59;;;;;;;8.10;1.75;;;13.80;99.90;;;;;;4947225;29;20182;-62
2024/02/15 11:25:36;;;;;;;4.60;1.40;;;13.90;99.90;;;;;;4947412;29;20289;-63
2024/02/15 11:28:21;;;;;;;9.40;2.00;;;13.90;99.90;;;;;;4949038;29;20058;-62
2024/02/15 11:30:48;;;;;;;8.15;1.67;;;13.80;99.90;;;;;;4949256;29;20027;-62
2024/02/15 11:33:35;;;;;;;6.97;1.80;;;13.80;99.90;;;;;;4945221;29;20023;-62
2024/02/15 11:36:12;;;;;;;4.63;1.50;;;13.80;99.90;;;;;;4945896;29;20046;-62
2024/02/15 11:38:45;;;;;;;4.38;1.50;;;13.70;99.90;;;;;;4948705;29;20015;-62
2024/02/15 11:41:11;;;;;;;6.70;1.55;;;13.70;99.90;;;;;;4948040;29;20050;-63
2024/02/15 11:43:45;;;;;;;6.00;1.48;;;13.70;99.90;;;;;;4948165;29;20023;-62
2024/02/15 11:46:18;;;;;;;6.85;1.67;;;13.60;99.90;;;;;;4949788;29;20122;-62
2024/02/15 11:48:53;;;;;;;6.40;1.60;;;13.70;99.90;;;;;;4944795;29;20035;-62
2024/02/15 11:51:33;;;;;;;4.80;1.58;;;13.70;99.90;;;;;;4947575;29;20062;-62
2024/02/15 11:54:20;;;;;;;6.82;1.60;;;13.70;99.90;;;;;;4947174;29;20431;-62
2024/02/15 11:57:13;;;;;;;7.40;1.35;;;13.70;99.90;;;;;;4945744;29;20495;-62
2024/02/15 12:00:12;;;;;;;5.97;1.50;;;13.80;99.90;;;;;;4944024;29;20509;-62
2024/02/15 12:19:21;;;;;;;4.82;1.40;;;13.90;99.90;;;;;;4945188;28;20051;-62
2024/02/15 12:21:48;;;;;;;6.05;1.60;;;14.00;99.90;;;;;;4943806;29;20023;-62
2024/02/15 12:24:16;;;;;;;5.75;1.35;;;14.00;99.90;;;;;;4945128;29;20486;-62
2024/02/15 12:26:42;;;;;;;4.70;1.52;;;14.00;99.90;;;;;;4948614;29;20460;-63
2024/02/15 12:29:09;;;;;;;6.57;1.60;;;14.10;99.90;;;;;;4947755;28;20123;-62
2024/02/15 12:31:38;;;;;;;3.55;1.25;;;14.10;99.90;;;;;;4949266;29;20114;-62
2024/02/15 12:34:08;;;;;;;6.18;1.48;;;14.20;99.90;;;;;;4952094;29;20054;-62
2024/02/15 12:36:36;;;;;;;8.35;1.60;;;14.20;99.90;;;;;;4949133;29;20023;-62
2024/02/15 12:39:12;;;;;;;8.95;1.67;;;14.30;99.90;;;;;;4952420;29;20024;-62
2024/02/15 12:41:42;;;;;;;7.93;2.35;;;14.50;99.90;;;;;;4948585;29;20118;-62
2024/02/15 12:44:07;;;;;;;3.60;1.30;;;14.60;99.90;;;;;;4947833;29;20031;-62
2024/02/15 12:46:34;;;;;;;8.68;1.70;;;14.80;99.90;;;;;;4949634;29;20482;-63
2024/02/15 12:49:30;;;;;;;6.80;1.50;;;14.90;99.90;;;;;;4951980;29;20522;-62
2024/02/15 12:52:38;;;;;;;4.07;1.23;;;15.00;99.90;;;;;;4931641;29;20035;-62
2024/02/15 12:55:24;;;;;;;4.80;1.38;;;15.10;99.90;;;;;;4947936;29;20360;-62
2024/02/15 12:57:55;;;;;;;8.55;1.65;;;15.40;99.90;;;;;;4952174;29;20050;-62
2024/02/15 13:00:28;;;;;;;4.80;1.45;;;15.70;99.90;;;;;;4948947;29;20023;-62
2024/02/15 13:02:55;;;;;;;7.95;1.45;;;15.90;99.90;;;;;;4951796;29;20423;-63
2024/02/15 13:05:22;;;;;;;5.00;1.35;;;16.10;99.90;;;;;;4949289;29;20032;-62
2024/02/15 13:07:51;;;;;;;7.03;1.42;;;16.30;99.90;;;;;;4949646;29;20028;-62
2024/02/15 13:10:17;;;;;;;4.80;1.40;;;16.30;99.90;;;;;;4949531;29;20023;-62
2024/02/15 13:12:46;;;;;;;6.80;1.65;;;16.20;99.90;;;;;;4951574;29;20282;-62
2024/02/15 13:15:17;;;;;;;2.92;1.20;;;16.20;99.90;;;;;;4949360;29;20027;-62
2024/02/15 13:17:51;;;;;;;5.65;1.75;;;16.10;99.90;;;;;;4951389;29;20098;-62